sensor_id;sensor_type;location;lat;lon;timestamp;P1;durP1;ratioP1;P2;durP2;ratioP2
60730;SDS011;46580;52.114;11.674;2023-08-31T00:00:28;2.93;;;1.20;;
60730;SDS011;46580;52.114;11.674;2023-08-31T00:03:00;2.07;;;1.30;;
60730;SDS011;46580;52.114;11.674;2023-08-31T00:05:25;2.33;;;1.50;;
60730;SDS011;46580;52.114;11.674;2023-08-31T00:07:54;1.63;;;1.53;;
60730;SDS011;46580;52.114;11.674;2023-08-31T00:10:19;2.07;;;1.67;;
60730;SDS011;46580;52.114;11.674;2023-08-31T00:12:44;1.47;;;1.20;;
60730;SDS011;46580;52.114;11.674;2023-08-31T00:15:10;3.00;;;1.50;;
60730;SDS011;46580;52.114;11.674;2023-08-31T00:17:36;2.17;;;1.70;;
60730;SDS011;46580;52.114;11.674;2023-08-31T00:20:03;2.93;;;1.53;;
60730;SDS011;46580;52.114;11.674;2023-08-31T00:22:31;1.77;;;1.47;;
60730;SDS011;46580;52.114;11.674;2023-08-31T00:24:56;2.23;;;1.87;;
60730;SDS011;46580;52.114;11.674;2023-08-31T00:27:22;2.40;;;2.07;;
60730;SDS011;46580;52.114;11.674;2023-08-31T00:29:47;3.20;;;1.83;;
60730;SDS011;46580;52.114;11.674;2023-08-31T00:32:15;2.73;;;1.87;;
60730;SDS011;46580;52.114;11.674;2023-08-31T00:34:41;4.43;;;2.30;;
60730;SDS011;46580;52.114;11.674;2023-08-31T00:37:07;3.37;;;2.20;;
60730;SDS011;46580;52.114;11.674;2023-08-31T00:39:33;2.37;;;1.80;;
60730;SDS011;46580;52.114;11.674;2023-08-31T00:41:59;3.93;;;2.83;;
60730;SDS011;46580;52.114;11.674;2023-08-31T00:44:25;3.13;;;2.57;;
60730;SDS011;46580;52.114;11.674;2023-08-31T00:46:51;4.43;;;3.20;;
60730;SDS011;46580;52.114;11.674;2023-08-31T00:49:17;4.17;;;3.30;;
60730;SDS011;46580;52.114;11.674;2023-08-31T00:51:43;7.23;;;3.23;;
60730;SDS011;46580;52.114;11.674;2023-08-31T00:54:13;4.00;;;3.03;;
60730;SDS011;46580;52.114;11.674;2023-08-31T00:56:39;4.40;;;3.30;;
60730;SDS011;46580;52.114;11.674;2023-08-31T00:59:04;6.03;;;3.07;;
60730;SDS011;46580;52.114;11.674;2023-08-31T01:01:36;4.43;;;3.60;;
60730;SDS011;46580;52.114;11.674;2023-08-31T01:10:14;4.40;;;2.90;;
60730;SDS011;46580;52.114;11.674;2023-08-31T01:12:52;3.80;;;3.13;;
60730;SDS011;46580;52.114;11.674;2023-08-31T01:15:21;3.40;;;2.83;;
60730;SDS011;46580;52.114;11.674;2023-08-31T01:17:48;4.43;;;3.20;;
60730;SDS011;46580;52.114;11.674;2023-08-31T01:20:16;4.27;;;3.13;;
60730;SDS011;46580;52.114;11.674;2023-08-31T01:23:13;4.07;;;3.00;;
60730;SDS011;46580;52.114;11.674;2023-08-31T01:25:44;3.60;;;2.50;;
60730;SDS011;46580;52.114;11.674;2023-08-31T01:28:11;3.73;;;2.73;;
60730;SDS011;46580;52.114;11.674;2023-08-31T01:30:37;3.97;;;2.70;;
60730;SDS011;46580;52.114;11.674;2023-08-31T01:33:02;3.40;;;2.40;;
60730;SDS011;46580;52.114;11.674;2023-08-31T01:35:30;4.83;;;3.10;;
60730;SDS011;46580;52.114;11.674;2023-08-31T01:38:10;3.10;;;2.43;;
60730;SDS011;46580;52.114;11.674;2023-08-31T01:40:45;3.07;;;2.77;;
60730;SDS011;46580;52.114;11.674;2023-08-31T01:43:17;3.83;;;2.83;;
60730;SDS011;46580;52.114;11.674;2023-08-31T01:45:43;4.30;;;2.63;;
60730;SDS011;46580;52.114;11.674;2023-08-31T01:48:13;3.87;;;2.70;;
60730;SDS011;46580;52.114;11.674;2023-08-31T01:50:39;3.53;;;2.50;;
60730;SDS011;46580;52.114;11.674;2023-08-31T01:53:04;2.93;;;2.43;;
60730;SDS011;46580;52.114;11.674;2023-08-31T01:55:32;5.03;;;3.10;;
60730;SDS011;46580;52.114;11.674;2023-08-31T01:57:58;3.20;;;2.63;;
60730;SDS011;46580;52.114;11.674;2023-08-31T02:00:24;5.77;;;2.83;;
60730;SDS011;46580;52.114;11.674;2023-08-31T02:02:50;3.03;;;2.70;;
60730;SDS011;46580;52.114;11.674;2023-08-31T02:05:16;3.60;;;2.73;;
60730;SDS011;46580;52.114;11.674;2023-08-31T02:07:41;4.27;;;3.43;;
60730;SDS011;46580;52.114;11.674;2023-08-31T02:10:07;5.07;;;2.90;;
60730;SDS011;46580;52.114;11.674;2023-08-31T02:12:32;3.97;;;2.80;;
60730;SDS011;46580;52.114;11.674;2023-08-31T02:14:58;3.30;;;2.70;;
60730;SDS011;46580;52.114;11.674;2023-08-31T02:17:24;3.40;;;2.53;;
60730;SDS011;46580;52.114;11.674;2023-08-31T02:19:50;4.00;;;3.00;;
60730;SDS011;46580;52.114;11.674;2023-08-31T02:22:16;3.20;;;2.77;;
60730;SDS011;46580;52.114;11.674;2023-08-31T02:24:41;3.20;;;2.80;;
60730;SDS011;46580;52.114;11.674;2023-08-31T02:27:06;5.20;;;3.13;;
60730;SDS011;46580;52.114;11.674;2023-08-31T02:29:32;4.73;;;3.20;;
60730;SDS011;46580;52.114;11.674;2023-08-31T02:31:57;4.30;;;3.30;;
60730;SDS011;46580;52.114;11.674;2023-08-31T02:34:23;4.43;;;3.00;;
60730;SDS011;46580;52.114;11.674;2023-08-31T02:36:48;4.90;;;4.07;;
60730;SDS011;46580;52.114;11.674;2023-08-31T02:39:13;4.37;;;3.57;;
60730;SDS011;46580;52.114;11.674;2023-08-31T02:41:46;7.60;;;4.10;;
60730;SDS011;46580;52.114;11.674;2023-08-31T02:44:12;5.27;;;3.60;;
60730;SDS011;46580;52.114;11.674;2023-08-31T02:46:37;5.43;;;3.93;;
60730;SDS011;46580;52.114;11.674;2023-08-31T02:49:03;5.20;;;4.40;;
60730;SDS011;46580;52.114;11.674;2023-08-31T02:51:29;6.03;;;4.33;;
60730;SDS011;46580;52.114;11.674;2023-08-31T02:53:55;5.50;;;4.53;;
60730;SDS011;46580;52.114;11.674;2023-08-31T02:56:20;6.40;;;4.83;;
60730;SDS011;46580;52.114;11.674;2023-08-31T02:58:46;5.70;;;4.30;;
60730;SDS011;46580;52.114;11.674;2023-08-31T03:01:13;7.63;;;4.70;;
60730;SDS011;46580;52.114;11.674;2023-08-31T03:03:39;10.07;;;5.13;;
60730;SDS011;46580;52.114;11.674;2023-08-31T03:06:05;6.43;;;4.67;;
60730;SDS011;46580;52.114;11.674;2023-08-31T03:08:38;7.90;;;5.00;;
60730;SDS011;46580;52.114;11.674;2023-08-31T03:11:04;7.27;;;4.70;;
60730;SDS011;46580;52.114;11.674;2023-08-31T03:13:30;7.23;;;5.10;;
60730;SDS011;46580;52.114;11.674;2023-08-31T03:15:57;9.10;;;5.10;;
60730;SDS011;46580;52.114;11.674;2023-08-31T03:18:22;8.43;;;5.27;;
60730;SDS011;46580;52.114;11.674;2023-08-31T03:20:48;6.93;;;5.07;;
60730;SDS011;46580;52.114;11.674;2023-08-31T03:23:14;7.23;;;5.33;;
60730;SDS011;46580;52.114;11.674;2023-08-31T03:25:39;8.20;;;5.47;;
60730;SDS011;46580;52.114;11.674;2023-08-31T03:28:05;7.47;;;5.53;;
60730;SDS011;46580;52.114;11.674;2023-08-31T03:30:30;8.83;;;5.60;;
60730;SDS011;46580;52.114;11.674;2023-08-31T03:32:56;9.23;;;5.30;;
60730;SDS011;46580;52.114;11.674;2023-08-31T03:35:21;10.67;;;5.77;;
60730;SDS011;46580;52.114;11.674;2023-08-31T03:37:51;6.73;;;5.23;;
60730;SDS011;46580;52.114;11.674;2023-08-31T03:40:17;6.97;;;5.60;;
60730;SDS011;46580;52.114;11.674;2023-08-31T03:42:42;9.20;;;5.60;;
60730;SDS011;46580;52.114;11.674;2023-08-31T03:45:08;7.53;;;6.03;;
60730;SDS011;46580;52.114;11.674;2023-08-31T03:47:33;7.13;;;4.73;;
60730;SDS011;46580;52.114;11.674;2023-08-31T03:49:59;8.63;;;5.43;;
60730;SDS011;46580;52.114;11.674;2023-08-31T03:52:24;9.57;;;5.70;;
60730;SDS011;46580;52.114;11.674;2023-08-31T03:54:50;11.67;;;5.97;;
60730;SDS011;46580;52.114;11.674;2023-08-31T03:57:17;8.40;;;6.17;;
60730;SDS011;46580;52.114;11.674;2023-08-31T03:59:42;9.87;;;6.70;;
60730;SDS011;46580;52.114;11.674;2023-08-31T04:02:08;10.67;;;6.33;;
60730;SDS011;46580;52.114;11.674;2023-08-31T04:04:33;8.23;;;6.63;;
60730;SDS011;46580;52.114;11.674;2023-08-31T04:06:59;9.53;;;6.40;;
60730;SDS011;46580;52.114;11.674;2023-08-31T04:09:25;12.63;;;7.70;;
60730;SDS011;46580;52.114;11.674;2023-08-31T04:11:50;12.20;;;7.60;;
60730;SDS011;46580;52.114;11.674;2023-08-31T04:14:16;14.30;;;7.63;;
60730;SDS011;46580;52.114;11.674;2023-08-31T04:16:43;10.13;;;6.27;;
60730;SDS011;46580;52.114;11.674;2023-08-31T04:19:09;11.43;;;8.03;;
60730;SDS011;46580;52.114;11.674;2023-08-31T04:21:34;8.00;;;6.10;;
60730;SDS011;46580;52.114;11.674;2023-08-31T04:23:59;8.83;;;6.70;;
60730;SDS011;46580;52.114;11.674;2023-08-31T04:26:25;14.37;;;7.67;;
60730;SDS011;46580;52.114;11.674;2023-08-31T04:28:50;12.03;;;7.20;;
60730;SDS011;46580;52.114;11.674;2023-08-31T04:31:16;9.27;;;6.67;;
60730;SDS011;46580;52.114;11.674;2023-08-31T04:33:41;8.30;;;6.40;;
60730;SDS011;46580;52.114;11.674;2023-08-31T04:36:06;10.93;;;6.77;;
60730;SDS011;46580;52.114;11.674;2023-08-31T04:38:33;10.60;;;6.47;;
60730;SDS011;46580;52.114;11.674;2023-08-31T04:40:59;9.77;;;6.80;;
60730;SDS011;46580;52.114;11.674;2023-08-31T04:43:25;12.87;;;7.00;;
60730;SDS011;46580;52.114;11.674;2023-08-31T04:45:51;10.97;;;7.47;;
60730;SDS011;46580;52.114;11.674;2023-08-31T04:48:17;6.83;;;5.87;;
60730;SDS011;46580;52.114;11.674;2023-08-31T04:50:42;12.47;;;6.80;;
60730;SDS011;46580;52.114;11.674;2023-08-31T04:53:07;12.07;;;6.67;;
60730;SDS011;46580;52.114;11.674;2023-08-31T04:55:33;8.27;;;5.97;;
60730;SDS011;46580;52.114;11.674;2023-08-31T04:57:58;9.73;;;5.97;;
60730;SDS011;46580;52.114;11.674;2023-08-31T05:00:24;7.67;;;6.03;;
60730;SDS011;46580;52.114;11.674;2023-08-31T05:02:49;9.80;;;6.57;;
60730;SDS011;46580;52.114;11.674;2023-08-31T05:05:14;10.23;;;5.97;;
60730;SDS011;46580;52.114;11.674;2023-08-31T05:07:40;13.20;;;7.03;;
60730;SDS011;46580;52.114;11.674;2023-08-31T05:10:06;12.13;;;6.10;;
60730;SDS011;46580;52.114;11.674;2023-08-31T05:12:32;10.27;;;6.40;;
60730;SDS011;46580;52.114;11.674;2023-08-31T05:14:57;8.47;;;6.03;;
60730;SDS011;46580;52.114;11.674;2023-08-31T05:17:22;8.93;;;6.43;;
60730;SDS011;46580;52.114;11.674;2023-08-31T05:19:48;11.57;;;6.33;;
60730;SDS011;46580;52.114;11.674;2023-08-31T05:22:15;15.80;;;7.37;;
60730;SDS011;46580;52.114;11.674;2023-08-31T05:24:40;8.37;;;6.40;;
60730;SDS011;46580;52.114;11.674;2023-08-31T05:27:06;12.47;;;6.30;;
60730;SDS011;46580;52.114;11.674;2023-08-31T05:29:31;10.70;;;6.37;;
60730;SDS011;46580;52.114;11.674;2023-08-31T05:31:56;14.17;;;6.70;;
60730;SDS011;46580;52.114;11.674;2023-08-31T05:34:22;16.87;;;6.40;;
60730;SDS011;46580;52.114;11.674;2023-08-31T05:36:48;11.40;;;6.60;;
60730;SDS011;46580;52.114;11.674;2023-08-31T05:42:05;8.23;;;5.57;;
60730;SDS011;46580;52.114;11.674;2023-08-31T05:44:30;7.00;;;5.73;;
60730;SDS011;46580;52.114;11.674;2023-08-31T05:46:56;8.57;;;5.47;;
60730;SDS011;46580;52.114;11.674;2023-08-31T05:49:21;11.97;;;5.53;;
60730;SDS011;46580;52.114;11.674;2023-08-31T05:51:47;10.43;;;5.97;;
60730;SDS011;46580;52.114;11.674;2023-08-31T05:54:13;12.97;;;5.70;;
60730;SDS011;46580;52.114;11.674;2023-08-31T05:56:38;8.43;;;5.30;;
60730;SDS011;46580;52.114;11.674;2023-08-31T05:59:07;8.67;;;5.77;;
60730;SDS011;46580;52.114;11.674;2023-08-31T06:01:32;9.50;;;6.07;;
60730;SDS011;46580;52.114;11.674;2023-08-31T06:03:58;8.27;;;5.30;;
60730;SDS011;46580;52.114;11.674;2023-08-31T06:06:24;9.00;;;5.20;;
60730;SDS011;46580;52.114;11.674;2023-08-31T06:08:49;9.63;;;5.20;;
60730;SDS011;46580;52.114;11.674;2023-08-31T06:11:15;9.43;;;5.63;;
60730;SDS011;46580;52.114;11.674;2023-08-31T06:13:40;12.03;;;5.50;;
60730;SDS011;46580;52.114;11.674;2023-08-31T06:16:06;8.97;;;5.13;;
60730;SDS011;46580;52.114;11.674;2023-08-31T06:18:31;9.40;;;5.20;;
60730;SDS011;46580;52.114;11.674;2023-08-31T06:20:57;11.20;;;6.63;;
60730;SDS011;46580;52.114;11.674;2023-08-31T06:23:22;9.90;;;5.47;;
60730;SDS011;46580;52.114;11.674;2023-08-31T06:25:48;8.53;;;5.73;;
60730;SDS011;46580;52.114;11.674;2023-08-31T06:28:13;7.53;;;5.07;;
60730;SDS011;46580;52.114;11.674;2023-08-31T06:30:38;10.07;;;5.03;;
60730;SDS011;46580;52.114;11.674;2023-08-31T06:33:05;10.90;;;5.73;;
60730;SDS011;46580;52.114;11.674;2023-08-31T06:35:30;9.97;;;5.20;;
60730;SDS011;46580;52.114;11.674;2023-08-31T06:37:56;6.50;;;4.77;;
60730;SDS011;46580;52.114;11.674;2023-08-31T06:40:22;10.23;;;4.80;;
60730;SDS011;46580;52.114;11.674;2023-08-31T06:42:49;9.70;;;5.37;;
60730;SDS011;46580;52.114;11.674;2023-08-31T06:45:14;7.20;;;5.13;;
60730;SDS011;46580;52.114;11.674;2023-08-31T06:47:46;10.13;;;4.70;;
60730;SDS011;46580;52.114;11.674;2023-08-31T06:50:11;7.30;;;4.77;;
60730;SDS011;46580;52.114;11.674;2023-08-31T06:52:36;7.17;;;5.07;;
60730;SDS011;46580;52.114;11.674;2023-08-31T06:55:02;5.90;;;4.57;;
60730;SDS011;46580;52.114;11.674;2023-08-31T06:57:28;7.20;;;4.40;;
60730;SDS011;46580;52.114;11.674;2023-08-31T07:02:45;8.17;;;5.17;;
60730;SDS011;46580;52.114;11.674;2023-08-31T07:05:10;10.07;;;4.47;;
60730;SDS011;46580;52.114;11.674;2023-08-31T07:07:36;8.50;;;4.20;;
60730;SDS011;46580;52.114;11.674;2023-08-31T07:10:01;8.17;;;3.80;;
60730;SDS011;46580;52.114;11.674;2023-08-31T07:12:27;5.53;;;3.73;;
60730;SDS011;46580;52.114;11.674;2023-08-31T07:14:53;6.80;;;3.90;;
60730;SDS011;46580;52.114;11.674;2023-08-31T07:17:18;7.30;;;3.40;;
60730;SDS011;46580;52.114;11.674;2023-08-31T07:19:47;4.70;;;3.23;;
60730;SDS011;46580;52.114;11.674;2023-08-31T07:22:12;6.93;;;3.20;;
60730;SDS011;46580;52.114;11.674;2023-08-31T07:24:38;6.77;;;3.47;;
60730;SDS011;46580;52.114;11.674;2023-08-31T07:27:03;6.90;;;3.20;;
60730;SDS011;46580;52.114;11.674;2023-08-31T07:29:30;6.63;;;3.00;;
60730;SDS011;46580;52.114;11.674;2023-08-31T07:31:56;7.10;;;3.23;;
60730;SDS011;46580;52.114;11.674;2023-08-31T07:34:22;6.23;;;2.63;;
60730;SDS011;46580;52.114;11.674;2023-08-31T07:36:48;3.70;;;2.63;;
60730;SDS011;46580;52.114;11.674;2023-08-31T07:39:13;5.97;;;3.03;;
60730;SDS011;46580;52.114;11.674;2023-08-31T07:41:38;4.73;;;2.63;;
60730;SDS011;46580;52.114;11.674;2023-08-31T07:44:05;3.57;;;2.80;;
60730;SDS011;46580;52.114;11.674;2023-08-31T07:46:32;6.23;;;2.53;;
60730;SDS011;46580;52.114;11.674;2023-08-31T07:48:58;4.23;;;2.83;;
60730;SDS011;46580;52.114;11.674;2023-08-31T07:51:23;5.33;;;3.43;;
60730;SDS011;46580;52.114;11.674;2023-08-31T07:53:50;3.03;;;2.37;;
60730;SDS011;46580;52.114;11.674;2023-08-31T07:56:16;4.07;;;2.37;;
60730;SDS011;46580;52.114;11.674;2023-08-31T07:58:41;3.17;;;2.37;;
60730;SDS011;46580;52.114;11.674;2023-08-31T08:01:07;3.33;;;2.27;;
60730;SDS011;46580;52.114;11.674;2023-08-31T08:03:32;5.27;;;2.67;;
60730;SDS011;46580;52.114;11.674;2023-08-31T08:05:58;5.10;;;3.00;;
60730;SDS011;46580;52.114;11.674;2023-08-31T08:08:23;6.73;;;2.60;;
60730;SDS011;46580;52.114;11.674;2023-08-31T08:10:53;6.30;;;2.27;;
60730;SDS011;46580;52.114;11.674;2023-08-31T08:13:20;8.67;;;2.27;;
60730;SDS011;46580;52.114;11.674;2023-08-31T08:15:46;8.27;;;2.67;;
60730;SDS011;46580;52.114;11.674;2023-08-31T08:18:11;2.10;;;1.63;;
60730;SDS011;46580;52.114;11.674;2023-08-31T08:20:37;5.60;;;2.03;;
60730;SDS011;46580;52.114;11.674;2023-08-31T08:23:02;4.10;;;2.00;;
60730;SDS011;46580;52.114;11.674;2023-08-31T08:25:28;3.97;;;2.13;;
60730;SDS011;46580;52.114;11.674;2023-08-31T08:27:53;3.13;;;2.23;;
60730;SDS011;46580;52.114;11.674;2023-08-31T08:30:19;3.40;;;1.83;;
60730;SDS011;46580;52.114;11.674;2023-08-31T08:32:45;4.37;;;2.40;;
60730;SDS011;46580;52.114;11.674;2023-08-31T08:35:10;3.90;;;2.23;;
60730;SDS011;46580;52.114;11.674;2023-08-31T08:37:36;12.27;;;3.13;;
60730;SDS011;46580;52.114;11.674;2023-08-31T08:40:01;4.53;;;2.20;;
60730;SDS011;46580;52.114;11.674;2023-08-31T08:42:29;4.83;;;2.20;;
60730;SDS011;46580;52.114;11.674;2023-08-31T08:44:56;7.93;;;2.53;;
60730;SDS011;46580;52.114;11.674;2023-08-31T08:47:22;2.90;;;2.13;;
60730;SDS011;46580;52.114;11.674;2023-08-31T08:49:50;5.43;;;2.37;;
60730;SDS011;46580;52.114;11.674;2023-08-31T08:52:16;4.03;;;2.13;;
60730;SDS011;46580;52.114;11.674;2023-08-31T08:54:41;1.87;;;1.67;;
60730;SDS011;46580;52.114;11.674;2023-08-31T08:57:07;2.80;;;2.00;;
60730;SDS011;46580;52.114;11.674;2023-08-31T08:59:32;3.77;;;1.83;;
60730;SDS011;46580;52.114;11.674;2023-08-31T09:01:58;1.80;;;1.67;;
60730;SDS011;46580;52.114;11.674;2023-08-31T09:04:24;2.13;;;1.60;;
60730;SDS011;46580;52.114;11.674;2023-08-31T09:06:51;2.27;;;1.30;;
60730;SDS011;46580;52.114;11.674;2023-08-31T09:09:16;2.97;;;1.17;;
60730;SDS011;46580;52.114;11.674;2023-08-31T09:11:42;1.27;;;1.17;;
60730;SDS011;46580;52.114;11.674;2023-08-31T09:14:20;4.77;;;1.30;;
60730;SDS011;46580;52.114;11.674;2023-08-31T09:16:46;2.00;;;1.33;;
60730;SDS011;46580;52.114;11.674;2023-08-31T09:19:20;1.77;;;0.93;;
60730;SDS011;46580;52.114;11.674;2023-08-31T09:21:49;2.43;;;1.20;;
60730;SDS011;46580;52.114;11.674;2023-08-31T09:24:16;2.87;;;1.23;;
60730;SDS011;46580;52.114;11.674;2023-08-31T09:26:44;1.53;;;1.10;;
60730;SDS011;46580;52.114;11.674;2023-08-31T09:29:14;1.40;;;0.90;;
60730;SDS011;46580;52.114;11.674;2023-08-31T09:31:45;1.33;;;0.87;;
60730;SDS011;46580;52.114;11.674;2023-08-31T09:34:12;2.23;;;0.70;;
60730;SDS011;46580;52.114;11.674;2023-08-31T09:36:39;2.47;;;0.90;;
60730;SDS011;46580;52.114;11.674;2023-08-31T09:39:08;2.17;;;1.20;;
60730;SDS011;46580;52.114;11.674;2023-08-31T09:41:53;1.10;;;0.93;;
60730;SDS011;46580;52.114;11.674;2023-08-31T09:44:20;3.03;;;1.50;;
60730;SDS011;46580;52.114;11.674;2023-08-31T09:46:46;2.87;;;1.10;;
60730;SDS011;46580;52.114;11.674;2023-08-31T09:49:16;2.33;;;0.90;;
60730;SDS011;46580;52.114;11.674;2023-08-31T09:51:45;4.43;;;1.00;;
60730;SDS011;46580;52.114;11.674;2023-08-31T09:54:13;5.17;;;1.00;;
60730;SDS011;46580;52.114;11.674;2023-08-31T09:56:44;0.83;;;0.83;;
60730;SDS011;46580;52.114;11.674;2023-08-31T09:59:11;1.20;;;0.80;;
60730;SDS011;46580;52.114;11.674;2023-08-31T10:01:38;1.23;;;0.90;;
60730;SDS011;46580;52.114;11.674;2023-08-31T10:04:09;2.10;;;0.77;;
60730;SDS011;46580;52.114;11.674;2023-08-31T10:06:35;2.37;;;0.70;;
60730;SDS011;46580;52.114;11.674;2023-08-31T10:09:01;0.67;;;0.60;;
60730;SDS011;46580;52.114;11.674;2023-08-31T10:11:28;1.10;;;0.40;;
60730;SDS011;46580;52.114;11.674;2023-08-31T10:13:55;1.13;;;0.70;;
60730;SDS011;46580;52.114;11.674;2023-08-31T10:16:22;1.33;;;0.80;;
60730;SDS011;46580;52.114;11.674;2023-08-31T10:18:50;2.53;;;0.80;;
60730;SDS011;46580;52.114;11.674;2023-08-31T10:21:17;1.27;;;0.70;;
60730;SDS011;46580;52.114;11.674;2023-08-31T10:23:46;1.00;;;0.70;;
60730;SDS011;46580;52.114;11.674;2023-08-31T10:26:22;1.53;;;0.80;;
60730;SDS011;46580;52.114;11.674;2023-08-31T10:28:52;1.57;;;0.87;;
60730;SDS011;46580;52.114;11.674;2023-08-31T10:31:18;2.57;;;0.80;;
60730;SDS011;46580;52.114;11.674;2023-08-31T10:33:47;2.77;;;1.00;;
60730;SDS011;46580;52.114;11.674;2023-08-31T10:36:20;2.10;;;0.80;;
60730;SDS011;46580;52.114;11.674;2023-08-31T10:38:46;1.13;;;0.80;;
60730;SDS011;46580;52.114;11.674;2023-08-31T10:41:25;4.33;;;1.00;;
60730;SDS011;46580;52.114;11.674;2023-08-31T10:43:54;1.83;;;0.80;;
60730;SDS011;46580;52.114;11.674;2023-08-31T10:46:28;1.60;;;0.90;;
60730;SDS011;46580;52.114;11.674;2023-08-31T10:49:01;3.17;;;1.00;;
60730;SDS011;46580;52.114;11.674;2023-08-31T10:54:30;1.10;;;1.00;;
60730;SDS011;46580;52.114;11.674;2023-08-31T11:02:06;0.97;;;0.70;;
60730;SDS011;46580;52.114;11.674;2023-08-31T11:04:38;2.13;;;0.73;;
60730;SDS011;46580;52.114;11.674;2023-08-31T11:07:18;2.60;;;0.70;;
60730;SDS011;46580;52.114;11.674;2023-08-31T11:09:44;1.17;;;0.60;;
60730;SDS011;46580;52.114;11.674;2023-08-31T11:12:13;4.80;;;1.00;;
60730;SDS011;46580;52.114;11.674;2023-08-31T11:14:38;2.20;;;0.80;;
60730;SDS011;46580;52.114;11.674;2023-08-31T11:17:04;0.97;;;0.63;;
60730;SDS011;46580;52.114;11.674;2023-08-31T11:19:30;1.43;;;0.83;;
60730;SDS011;46580;52.114;11.674;2023-08-31T11:22:02;4.10;;;0.80;;
60730;SDS011;46580;52.114;11.674;2023-08-31T11:24:29;1.43;;;0.67;;
60730;SDS011;46580;52.114;11.674;2023-08-31T11:26:55;2.20;;;0.60;;
60730;SDS011;46580;52.114;11.674;2023-08-31T11:29:21;1.30;;;0.77;;
60730;SDS011;46580;52.114;11.674;2023-08-31T11:31:46;3.57;;;1.07;;
60730;SDS011;46580;52.114;11.674;2023-08-31T11:34:12;2.57;;;0.60;;
60730;SDS011;46580;52.114;11.674;2023-08-31T11:36:39;2.97;;;0.73;;
60730;SDS011;46580;52.114;11.674;2023-08-31T11:39:07;1.77;;;0.50;;
60730;SDS011;46580;52.114;11.674;2023-08-31T11:41:33;3.63;;;0.63;;
60730;SDS011;46580;52.114;11.674;2023-08-31T11:44:01;2.63;;;0.70;;
60730;SDS011;46580;52.114;11.674;2023-08-31T11:46:29;1.47;;;0.70;;
60730;SDS011;46580;52.114;11.674;2023-08-31T11:48:55;2.43;;;0.87;;
60730;SDS011;46580;52.114;11.674;2023-08-31T11:51:20;2.53;;;1.13;;
60730;SDS011;46580;52.114;11.674;2023-08-31T11:53:46;1.70;;;0.57;;
60730;SDS011;46580;52.114;11.674;2023-08-31T11:56:12;2.43;;;0.60;;
60730;SDS011;46580;52.114;11.674;2023-08-31T11:58:44;3.40;;;0.67;;
60730;SDS011;46580;52.114;11.674;2023-08-31T12:01:11;2.03;;;0.70;;
60730;SDS011;46580;52.114;11.674;2023-08-31T12:03:44;1.07;;;0.60;;
60730;SDS011;46580;52.114;11.674;2023-08-31T12:06:10;1.60;;;0.53;;
60730;SDS011;46580;52.114;11.674;2023-08-31T12:08:36;6.20;;;0.83;;
60730;SDS011;46580;52.114;11.674;2023-08-31T12:11:02;2.50;;;1.20;;
60730;SDS011;46580;52.114;11.674;2023-08-31T12:13:27;3.53;;;1.07;;
60730;SDS011;46580;52.114;11.674;2023-08-31T12:15:54;2.57;;;0.97;;
60730;SDS011;46580;52.114;11.674;2023-08-31T12:18:20;0.90;;;0.77;;
60730;SDS011;46580;52.114;11.674;2023-08-31T12:20:51;1.87;;;0.93;;
60730;SDS011;46580;52.114;11.674;2023-08-31T12:23:18;2.03;;;0.87;;
60730;SDS011;46580;52.114;11.674;2023-08-31T12:25:50;2.67;;;0.70;;
60730;SDS011;46580;52.114;11.674;2023-08-31T12:28:16;1.30;;;0.63;;
60730;SDS011;46580;52.114;11.674;2023-08-31T12:30:45;4.87;;;0.63;;
60730;SDS011;46580;52.114;11.674;2023-08-31T12:33:12;0.80;;;0.60;;
60730;SDS011;46580;52.114;11.674;2023-08-31T12:35:37;2.07;;;0.63;;
60730;SDS011;46580;52.114;11.674;2023-08-31T12:38:04;3.07;;;0.60;;
60730;SDS011;46580;52.114;11.674;2023-08-31T12:40:30;2.47;;;0.57;;
60730;SDS011;46580;52.114;11.674;2023-08-31T12:42:55;2.10;;;0.40;;
60730;SDS011;46580;52.114;11.674;2023-08-31T12:45:21;0.63;;;0.47;;
60730;SDS011;46580;52.114;11.674;2023-08-31T12:47:46;1.03;;;0.90;;
60730;SDS011;46580;52.114;11.674;2023-08-31T12:50:12;0.67;;;0.43;;
60730;SDS011;46580;52.114;11.674;2023-08-31T12:52:38;3.00;;;0.53;;
60730;SDS011;46580;52.114;11.674;2023-08-31T12:55:09;1.63;;;0.60;;
60730;SDS011;46580;52.114;11.674;2023-08-31T12:57:35;1.80;;;0.60;;
60730;SDS011;46580;52.114;11.674;2023-08-31T13:00:01;1.67;;;0.67;;
60730;SDS011;46580;52.114;11.674;2023-08-31T13:02:30;2.17;;;0.70;;
60730;SDS011;46580;52.114;11.674;2023-08-31T13:04:55;1.10;;;0.87;;
60730;SDS011;46580;52.114;11.674;2023-08-31T13:07:20;2.40;;;1.17;;
60730;SDS011;46580;52.114;11.674;2023-08-31T13:09:46;1.93;;;1.10;;
60730;SDS011;46580;52.114;11.674;2023-08-31T13:12:11;1.60;;;1.10;;
60730;SDS011;46580;52.114;11.674;2023-08-31T13:14:38;4.13;;;1.53;;
60730;SDS011;46580;52.114;11.674;2023-08-31T13:17:04;1.20;;;1.10;;
60730;SDS011;46580;52.114;11.674;2023-08-31T13:19:31;3.77;;;1.30;;
60730;SDS011;46580;52.114;11.674;2023-08-31T13:21:58;2.00;;;1.30;;
60730;SDS011;46580;52.114;11.674;2023-08-31T13:24:23;2.23;;;1.10;;
60730;SDS011;46580;52.114;11.674;2023-08-31T13:26:49;1.50;;;0.90;;
60730;SDS011;46580;52.114;11.674;2023-08-31T13:29:15;0.90;;;0.90;;
60730;SDS011;46580;52.114;11.674;2023-08-31T13:31:41;2.40;;;1.07;;
60730;SDS011;46580;52.114;11.674;2023-08-31T13:34:07;1.00;;;0.80;;
60730;SDS011;46580;52.114;11.674;2023-08-31T13:36:33;1.87;;;0.67;;
60730;SDS011;46580;52.114;11.674;2023-08-31T13:38:59;1.57;;;0.60;;
60730;SDS011;46580;52.114;11.674;2023-08-31T13:41:24;0.87;;;0.70;;
60730;SDS011;46580;52.114;11.674;2023-08-31T13:43:50;4.33;;;0.90;;
60730;SDS011;46580;52.114;11.674;2023-08-31T13:46:17;2.30;;;0.60;;
60730;SDS011;46580;52.114;11.674;2023-08-31T13:48:45;1.77;;;0.80;;
60730;SDS011;46580;52.114;11.674;2023-08-31T13:51:10;2.57;;;0.90;;
60730;SDS011;46580;52.114;11.674;2023-08-31T13:53:36;1.07;;;0.53;;
60730;SDS011;46580;52.114;11.674;2023-08-31T13:56:01;0.70;;;0.43;;
60730;SDS011;46580;52.114;11.674;2023-08-31T13:58:26;2.40;;;0.80;;
60730;SDS011;46580;52.114;11.674;2023-08-31T14:00:52;1.20;;;0.80;;
60730;SDS011;46580;52.114;11.674;2023-08-31T14:03:18;1.47;;;0.77;;
60730;SDS011;46580;52.114;11.674;2023-08-31T14:05:47;2.20;;;0.60;;
60730;SDS011;46580;52.114;11.674;2023-08-31T14:08:16;2.03;;;0.80;;
60730;SDS011;46580;52.114;11.674;2023-08-31T14:10:41;0.60;;;0.50;;
60730;SDS011;46580;52.114;11.674;2023-08-31T14:13:07;2.90;;;0.73;;
60730;SDS011;46580;52.114;11.674;2023-08-31T14:15:32;0.80;;;0.50;;
60730;SDS011;46580;52.114;11.674;2023-08-31T14:17:58;0.53;;;0.30;;
60730;SDS011;46580;52.114;11.674;2023-08-31T14:20:23;0.80;;;0.50;;
60730;SDS011;46580;52.114;11.674;2023-08-31T14:22:49;2.60;;;0.50;;
60730;SDS011;46580;52.114;11.674;2023-08-31T14:25:15;1.07;;;0.50;;
60730;SDS011;46580;52.114;11.674;2023-08-31T14:27:41;0.77;;;0.40;;
60730;SDS011;46580;52.114;11.674;2023-08-31T14:30:07;1.47;;;0.50;;
60730;SDS011;46580;52.114;11.674;2023-08-31T14:32:33;1.50;;;0.37;;
60730;SDS011;46580;52.114;11.674;2023-08-31T14:34:58;2.50;;;0.53;;
60730;SDS011;46580;52.114;11.674;2023-08-31T14:37:23;3.57;;;0.53;;
60730;SDS011;46580;52.114;11.674;2023-08-31T14:39:49;0.63;;;0.43;;
60730;SDS011;46580;52.114;11.674;2023-08-31T14:42:15;1.63;;;0.60;;
60730;SDS011;46580;52.114;11.674;2023-08-31T14:44:42;9.17;;;0.80;;
60730;SDS011;46580;52.114;11.674;2023-08-31T14:47:09;2.30;;;0.70;;
60730;SDS011;46580;52.114;11.674;2023-08-31T14:49:34;2.33;;;0.80;;